Time;durP1;ratioP1;P1;durP2;ratioP2;P2;SDS_P1;SDS_P2;PMS_P1;PMS_P2;Temp;Humidity;BMP_temperature;BMP_pressure;BME280_temperature;BME280_humidity;BME280_pressure;Samples;Min_cycle;Max_cycle;Signal;HPM_P1;HPM_P2
2022/01/13 00:02:13;;;;;;;75.88;56.55;;;16.10;57.00;;;;;;5013202;27;90744;-70
2022/01/13 00:04:39;;;;;;;74.85;56.80;;;16.10;57.00;;;;;;5008995;27;89949;-69
2022/01/13 00:07:05;;;;;;;74.85;56.88;;;16.10;57.10;;;;;;4998040;27;94013;-70
2022/01/13 00:09:31;;;;;;;78.22;57.75;;;16.10;57.10;;;;;;5009300;27;91775;-70
2022/01/13 00:11:57;;;;;;;77.20;56.45;;;16.00;57.70;;;;;;5005991;27;89512;-70
2022/01/13 00:14:37;;;;;;;76.03;57.63;;;16.00;57.10;;;;;;5010911;27;90431;-69
2022/01/13 00:17:11;;;;;;;74.43;56.35;;;16.00;57.30;;;;;;5014469;27;90735;-70
2022/01/13 00:24:49;;;;;;;76.03;55.90;;;15.90;57.40;;;;;;5010538;27;90776;-69
2022/01/13 00:27:15;;;;;;;74.07;55.80;;;15.90;57.50;;;;;;5008944;27;91361;-69
2022/01/13 00:29:44;;;;;;;74.40;56.08;;;15.90;57.50;;;;;;5017888;27;90302;-69
2022/01/13 00:32:13;;;;;;;75.80;56.72;;;15.80;57.50;;;;;;5011727;27;90321;-70
2022/01/13 00:34:39;;;;;;;74.57;55.67;;;15.80;57.60;;;;;;5012621;27;92910;-69
2022/01/13 00:37:05;;;;;;;70.57;54.92;;;15.80;57.50;;;;;;5016637;27;90788;-69
2022/01/13 00:39:31;;;;;;;72.80;55.45;;;15.80;57.60;;;;;;5015443;27;89847;-70
2022/01/13 00:41:56;;;;;;;71.40;55.13;;;15.80;57.60;;;;;;5009100;27;89742;-69
2022/01/13 00:44:22;;;;;;;70.07;55.50;;;15.70;57.50;;;;;;5006871;27;90041;-70
2022/01/13 00:46:55;;;;;;;74.15;55.53;;;15.70;57.70;;;;;;5014870;27;90615;-69
2022/01/13 00:49:21;;;;;;;73.82;55.65;;;15.70;57.70;;;;;;5016444;27;90358;-69
2022/01/13 00:51:47;;;;;;;72.53;55.28;;;15.70;58.00;;;;;;5014730;27;92740;-70
2022/01/13 00:54:13;;;;;;;72.88;54.97;;;15.70;57.80;;;;;;5011204;27;90340;-70
2022/01/13 00:56:39;;;;;;;72.70;55.13;;;15.70;57.90;;;;;;5008288;27;89923;-69
2022/01/13 00:59:09;;;;;;;72.00;54.58;;;15.70;58.00;;;;;;5018908;27;89971;-70
2022/01/13 01:01:49;;;;;;;62.83;49.87;;;15.70;58.80;;;;;;491194;27;10108703;-70
2022/01/13 01:04:16;;;;;;;71.25;54.97;;;15.80;58.30;;;;;;5010610;27;91152;-70
2022/01/13 01:06:43;;;;;;;70.03;54.95;;;15.90;57.80;;;;;;5022207;27;89827;-69
2022/01/13 01:09:16;;;;;;;70.05;53.88;;;16.00;57.40;;;;;;5016196;27;88715;-69
2022/01/13 01:11:45;;;;;;;68.55;54.30;;;16.10;57.40;;;;;;5011053;27;91919;-70
2022/01/13 01:14:13;;;;;;;71.80;55.33;;;16.20;57.20;;;;;;5007977;27;90868;-69
2022/01/13 01:16:39;;;;;;;72.03;54.78;;;16.30;56.80;;;;;;5008812;27;94279;-69
2022/01/13 01:19:07;;;;;;;72.80;55.45;;;16.40;56.60;;;;;;5017920;27;89947;-69
2022/01/13 01:31:49;;;;;;;70.53;54.20;;;16.80;55.70;;;;;;5015158;27;89903;-69
2022/01/13 01:37:19;;;;;;;68.90;54.33;;;16.80;55.30;;;;;;4925940;28;89674;-70
2022/01/13 01:39:47;;;;;;;70.20;54.65;;;16.80;55.40;;;;;;4977985;27;91610;-70
2022/01/13 01:42:14;;;;;;;69.57;53.78;;;16.90;55.30;;;;;;4990796;27;92417;-69
2022/01/13 01:44:43;;;;;;;69.85;54.15;;;16.90;54.90;;;;;;5010960;27;91505;-70
2022/01/13 01:47:13;;;;;;;71.03;54.38;;;16.90;55.20;;;;;;5013078;27;89399;-70
2022/01/13 01:49:42;;;;;;;68.97;54.35;;;16.90;55.00;;;;;;4990835;28;89716;-70
2022/01/13 01:52:10;;;;;;;68.07;53.70;;;16.80;54.90;;;;;;5003651;27;90795;-69
2022/01/13 01:54:35;;;;;;;68.13;53.45;;;16.80;55.20;;;;;;5011996;27;89800;-69
2022/01/13 01:57:02;;;;;;;70.25;54.17;;;16.80;55.10;;;;;;5013425;27;89897;-70
2022/01/13 01:59:31;;;;;;;70.30;54.83;;;16.80;55.00;;;;;;5014726;27;89588;-70
2022/01/13 02:01:57;;;;;;;69.18;53.97;;;16.80;55.10;;;;;;5012424;27;90045;-70
2022/01/13 02:04:26;;;;;;;70.95;54.63;;;16.80;55.20;;;;;;5019499;27;89983;-70
2022/01/13 02:06:56;;;;;;;71.43;54.65;;;16.70;55.20;;;;;;5014728;27;90546;-70
2022/01/13 02:09:23;;;;;;;68.15;53.83;;;16.70;55.30;;;;;;4989130;27;91654;-69
2022/01/13 02:11:54;;;;;;;71.07;54.78;;;16.60;55.00;;;;;;5015857;27;92359;-69
2022/01/13 02:17:21;;;;;;;66.72;53.72;;;16.60;55.10;;;;;;4997547;27;91061;-70
2022/01/13 02:19:50;;;;;;;68.85;54.13;;;16.60;55.50;;;;;;4991407;27;90049;-69
2022/01/13 02:22:16;;;;;;;67.30;54.13;;;16.60;55.20;;;;;;5011854;27;90506;-70
2022/01/13 02:24:41;;;;;;;69.57;54.33;;;16.60;55.50;;;;;;4991070;28;90684;-70
2022/01/13 02:27:07;;;;;;;68.25;54.08;;;16.50;55.30;;;;;;5008589;27;90760;-70
2022/01/13 02:29:33;;;;;;;68.13;53.47;;;16.50;55.70;;;;;;5015406;27;89455;-70
2022/01/13 02:31:59;;;;;;;68.75;53.72;;;16.40;55.60;;;;;;5013743;27;91550;-69
2022/01/13 02:34:25;;;;;;;68.97;54.33;;;16.40;55.70;;;;;;5005559;27;93243;-70
2022/01/13 02:36:55;;;;;;;68.20;53.60;;;16.30;55.80;;;;;;5015458;27;89373;-70
2022/01/13 02:39:23;;;;;;;70.07;54.40;;;16.30;55.90;;;;;;5005208;27;89883;-69
2022/01/13 02:41:49;;;;;;;68.05;53.85;;;16.30;55.90;;;;;;5014978;27;90939;-70
2022/01/13 02:44:18;;;;;;;69.07;53.60;;;16.30;55.90;;;;;;4998861;27;90784;-69
2022/01/13 02:49:15;;;;;;;67.28;54.13;;;16.20;56.00;;;;;;5001205;27;89111;-69
2022/01/13 02:51:43;;;;;;;67.40;53.78;;;16.10;56.10;;;;;;5004562;27;89905;-70
2022/01/13 02:54:09;;;;;;;66.63;53.22;;;16.10;56.30;;;;;;5016291;27;90441;-70
2022/01/13 02:56:36;;;;;;;66.95;53.47;;;16.00;56.10;;;;;;5017754;27;90912;-70
2022/01/13 02:59:02;;;;;;;67.60;53.60;;;16.00;56.30;;;;;;5011285;27;90083;-69
2022/01/13 03:01:28;;;;;;;67.68;53.05;;;16.00;56.60;;;;;;5016188;27;91884;-69
2022/01/13 03:03:53;;;;;;;68.95;53.45;;;15.90;56.60;;;;;;4999121;27;93880;-70
2022/01/13 03:06:24;;;;;;;67.93;53.92;;;15.90;56.60;;;;;;5022113;27;91346;-69
2022/01/13 03:08:51;;;;;;;65.70;53.13;;;15.90;56.80;;;;;;5007461;27;96605;-70
2022/01/13 03:11:18;;;;;;;66.13;53.38;;;15.90;56.70;;;;;;5020393;27;90911;-70
2022/01/13 03:13:43;;;;;;;68.80;53.78;;;15.80;56.70;;;;;;5020287;27;89361;-70
2022/01/13 03:16:13;;;;;;;66.63;53.45;;;15.80;56.80;;;;;;5006942;27;90145;-70
2022/01/13 03:18:38;;;;;;;67.07;52.83;;;15.70;56.80;;;;;;5009967;27;93025;-70
2022/01/13 03:21:06;;;;;;;65.00;52.25;;;15.70;56.70;;;;;;5021151;27;91639;-70
2022/01/13 03:23:33;;;;;;;64.97;52.75;;;15.70;56.90;;;;;;5018643;27;89562;-70
2022/01/13 03:25:58;;;;;;;67.65;53.03;;;15.60;56.80;;;;;;5012288;27;89584;-70
2022/01/13 03:28:50;;;;;;;66.65;52.83;;;15.70;57.00;;;;;;5015495;27;90193;-70
2022/01/13 03:31:16;;;;;;;;;;;15.60;57.10;;;;;;5019997;27;90186;-70
2022/01/13 03:33:42;;;;;;;66.70;52.85;;;15.60;57.10;;;;;;5014820;27;90770;-69
2022/01/13 03:36:08;;;;;;;65.68;53.00;;;15.60;57.30;;;;;;5023795;27;90793;-70
2022/01/13 03:38:35;;;;;;;66.80;52.85;;;15.50;57.20;;;;;;5016091;27;89058;-70
2022/01/13 03:41:01;;;;;;;65.05;52.65;;;15.50;57.40;;;;;;5008951;27;91115;-69
2022/01/13 03:43:26;;;;;;;65.50;52.47;;;15.50;57.20;;;;;;5000177;27;90834;-69
2022/01/13 03:45:52;;;;;;;66.50;52.33;;;15.50;57.40;;;;;;5017251;27;91680;-70
2022/01/13 03:48:18;;;;;;;66.68;53.00;;;15.40;57.50;;;;;;5018991;27;89379;-70
2022/01/13 03:50:44;;;;;;;64.55;52.40;;;15.50;57.50;;;;;;5013971;27;90081;-69
2022/01/13 03:53:28;;;;;;;63.85;52.42;;;15.50;57.30;;;;;;5020151;27;91167;-70
2022/01/13 03:56:31;;;;;;;64.22;52.08;;;15.60;57.50;;;;;;5016112;27;89789;-70
2022/01/13 03:59:30;;;;;;;64.65;52.10;;;15.60;57.10;;;;;;4970416;27;90106;-70
2022/01/13 04:02:00;;;;;;;65.80;53.13;;;15.70;57.00;;;;;;5017296;27;90432;-69
2022/01/13 04:04:27;;;;;;;63.22;51.58;;;15.80;57.10;;;;;;5012640;27;89998;-70
2022/01/13 04:07:04;;;;;;;63.63;52.25;;;15.80;56.80;;;;;;5011727;27;90713;-69
2022/01/13 04:09:39;;;;;;;65.70;53.28;;;15.80;56.60;;;;;;4990865;27;90388;-70
2022/01/13 04:12:07;;;;;;;64.65;52.20;;;15.90;56.50;;;;;;4968346;27;96483;-70
2022/01/13 04:14:44;;;;;;;63.70;51.47;;;15.90;56.50;;;;;;5011378;27;90529;-70
2022/01/13 04:17:16;;;;;;;62.40;51.50;;;15.90;56.20;;;;;;5009766;27;90710;-69
2022/01/13 04:19:42;;;;;;;65.20;52.50;;;16.00;56.20;;;;;;5019920;27;90531;-69
2022/01/13 04:22:09;;;;;;;65.00;52.58;;;16.00;56.00;;;;;;5010558;27;91898;-70
2022/01/13 04:24:39;;;;;;;63.55;52.42;;;16.00;56.00;;;;;;5006427;27;91697;-69
2022/01/13 04:27:08;;;;;;;65.10;52.92;;;16.00;56.00;;;;;;5002943;27;91404;-69
2022/01/13 04:29:39;;;;;;;64.60;52.35;;;16.00;56.30;;;;;;5017421;27;89780;-69
2022/01/13 04:32:05;;;;;;;63.22;52.03;;;16.00;56.20;;;;;;5010021;27;92681;-69
2022/01/13 04:34:32;;;;;;;63.08;51.65;;;16.00;56.30;;;;;;5017198;27;90510;-69
2022/01/13 04:36:58;;;;;;;62.83;51.63;;;16.00;56.40;;;;;;4993482;27;92445;-70
2022/01/13 04:39:26;;;;;;;63.83;51.83;;;15.90;55.90;;;;;;4993724;27;90045;-69
2022/01/13 04:41:53;;;;;;;64.97;52.30;;;15.90;56.30;;;;;;5002157;27;90490;-70
2022/01/13 04:44:22;;;;;;;61.97;51.35;;;15.90;56.80;;;;;;5015806;27;89851;-70
2022/01/13 04:46:49;;;;;;;63.65;51.58;;;15.90;56.10;;;;;;5008662;27;90223;-69
2022/01/13 04:49:18;;;;;;;62.88;51.63;;;15.90;56.00;;;;;;5018313;27;90851;-70
2022/01/13 04:51:45;;;;;;;63.35;51.92;;;15.90;56.50;;;;;;5015202;27;91004;-70
2022/01/13 04:54:10;;;;;;;64.38;52.13;;;15.80;56.30;;;;;;5015325;27;90171;-70
2022/01/13 04:59:17;;;;;;;63.47;52.13;;;15.80;56.60;;;;;;5010206;27;89658;-70
2022/01/13 05:01:43;;;;;;;63.75;51.90;;;15.70;57.00;;;;;;5009132;27;92802;-69
2022/01/13 05:04:09;;;;;;;63.92;51.42;;;15.70;57.20;;;;;;5019095;27;91645;-70
2022/01/13 05:06:35;;;;;;;63.13;51.63;;;15.70;57.40;;;;;;5014564;27;89932;-70
2022/01/13 05:09:01;;;;;;;62.30;51.13;;;15.90;57.10;;;;;;5019231;27;89719;-69
2022/01/13 05:11:27;;;;;;;62.72;51.22;;;15.90;57.10;;;;;;5006461;27;90174;-70
2022/01/13 05:13:53;;;;;;;63.30;51.38;;;16.10;57.20;;;;;;5012114;27;90568;-70
2022/01/13 05:16:50;;;;;;;62.97;51.08;;;16.20;56.90;;;;;;5007205;27;90849;-69
2022/01/13 05:19:21;;;;;;;62.95;51.47;;;16.40;56.80;;;;;;5016738;27;89886;-69
2022/01/13 05:22:15;;;;;;;64.07;51.80;;;16.50;56.60;;;;;;5011825;27;91311;-70
2022/01/13 05:24:42;;;;;;;62.80;51.50;;;16.70;56.10;;;;;;5016627;27;90199;-70
2022/01/13 05:27:08;;;;;;;62.65;51.15;;;16.90;55.70;;;;;;5007823;27;91132;-69
2022/01/13 05:29:34;;;;;;;62.25;51.05;;;17.00;55.50;;;;;;5016458;27;90482;-69
2022/01/13 05:31:59;;;;;;;62.03;51.05;;;17.10;55.10;;;;;;5018370;27;96264;-70
2022/01/13 05:34:25;;;;;;;61.50;51.08;;;17.20;55.00;;;;;;4982994;28;91167;-69
2022/01/13 05:36:50;;;;;;;64.13;51.60;;;17.30;54.90;;;;;;5009985;27;91435;-70
2022/01/13 05:39:16;;;;;;;64.10;51.30;;;17.30;54.50;;;;;;5009711;27;89580;-70
2022/01/13 05:41:42;;;;;;;63.38;51.40;;;17.40;54.40;;;;;;5001708;27;91416;-70
2022/01/13 05:44:07;;;;;;;62.45;50.80;;;17.40;54.40;;;;;;5014827;27;89969;-70
2022/01/13 05:46:33;;;;;;;62.90;51.05;;;17.50;54.20;;;;;;5010867;27;89738;-71
2022/01/13 05:48:58;;;;;;;64.68;51.05;;;17.50;54.20;;;;;;4998444;27;89666;-70
2022/01/13 05:51:24;;;;;;;63.40;51.15;;;17.50;53.90;;;;;;4998887;27;96283;-70
2022/01/13 05:53:50;;;;;;;64.03;51.28;;;17.50;53.90;;;;;;5012978;27;95438;-70
2022/01/13 05:56:16;;;;;;;62.25;50.67;;;17.50;53.70;;;;;;5015328;27;90089;-69
2022/01/13 05:58:42;;;;;;;62.40;50.83;;;17.50;53.90;;;;;;5009259;27;91419;-70
2022/01/13 06:01:08;;;;;;;61.40;50.67;;;17.50;53.80;;;;;;5006310;27;91906;-70
2022/01/13 06:03:34;;;;;;;62.83;50.92;;;17.40;53.70;;;;;;5015058;27;90300;-67
2022/01/13 06:05:59;;;;;;;62.05;50.70;;;17.40;53.80;;;;;;5017073;27;91239;-66
2022/01/13 06:08:26;;;;;;;62.65;50.97;;;17.40;53.80;;;;;;5014398;27;89477;-67
2022/01/13 06:10:51;;;;;;;61.95;50.58;;;17.40;53.80;;;;;;5010391;27;90331;-69
2022/01/13 06:13:17;;;;;;;61.28;50.28;;;17.40;53.80;;;;;;5016681;27;90434;-69
2022/01/13 06:15:43;;;;;;;60.95;50.35;;;17.40;53.80;;;;;;5000232;28;91290;-67
2022/01/13 06:18:14;;;;;;;61.03;50.45;;;17.30;54.00;;;;;;4996648;27;90663;-70
2022/01/13 06:20:41;;;;;;;62.47;50.85;;;17.30;53.80;;;;;;5020286;27;90706;-70
2022/01/13 06:23:08;;;;;;;61.65;50.58;;;17.20;53.70;;;;;;4982258;27;95553;-70
2022/01/13 06:25:35;;;;;;;61.75;50.72;;;17.20;54.20;;;;;;5014945;27;90021;-70
2022/01/13 06:28:01;;;;;;;61.85;50.53;;;17.20;54.10;;;;;;5010775;27;90035;-71
2022/01/13 06:30:26;;;;;;;60.60;50.03;;;17.10;54.20;;;;;;5014418;27;89380;-70
2022/01/13 06:32:52;;;;;;;61.10;50.42;;;17.10;54.30;;;;;;5013579;27;89366;-70
2022/01/13 06:35:18;;;;;;;60.97;50.45;;;17.10;54.50;;;;;;5004864;27;90225;-69
2022/01/13 06:37:44;;;;;;;62.20;50.80;;;17.10;54.30;;;;;;5005082;27;93206;-68
2022/01/13 06:40:14;;;;;;;60.60;50.15;;;17.00;54.20;;;;;;4997864;27;95931;-69
2022/01/13 06:42:40;;;;;;;63.75;50.28;;;17.00;54.80;;;;;;4996015;27;90661;-69
2022/01/13 06:45:07;;;;;;;62.20;50.58;;;16.90;54.80;;;;;;5016146;27;90090;-70
2022/01/13 06:47:33;;;;;;;62.60;51.05;;;16.90;54.60;;;;;;5017209;27;91506;-70
2022/01/13 06:49:58;;;;;;;62.90;50.63;;;16.90;54.80;;;;;;5020184;27;90882;-70
2022/01/13 06:52:24;;;;;;;62.90;50.70;;;16.90;54.90;;;;;;5016538;27;90191;-70
2022/01/13 06:54:52;;;;;;;61.42;50.33;;;16.80;55.20;;;;;;5009908;27;91017;-74
2022/01/13 06:57:19;;;;;;;64.53;51.00;;;16.80;55.30;;;;;;4995109;27;89290;-76
2022/01/13 06:59:45;;;;;;;64.78;51.00;;;16.80;55.30;;;;;;5017662;27;90309;-74
2022/01/13 07:02:17;;;;;;;62.83;50.40;;;16.90;55.80;;;;;;5038412;27;89927;-76
2022/01/13 07:04:45;;;;;;;65.43;50.85;;;17.00;55.80;;;;;;5033420;27;91084;-75
2022/01/13 07:07:12;;;;;;;64.15;51.35;;;17.20;56.40;;;;;;5004873;27;90604;-77
2022/01/13 07:09:39;;;;;;;69.95;51.08;;;17.30;56.40;;;;;;5018208;27;91570;-76
2022/01/13 07:12:09;;;;;;;67.95;51.63;;;17.50;56.20;;;;;;4972610;27;91517;-75
2022/01/13 07:14:35;;;;;;;65.53;51.22;;;17.70;56.30;;;;;;4971492;27;91493;-77
2022/01/13 07:17:01;;;;;;;65.88;51.92;;;17.80;55.60;;;;;;4961805;27;89826;-78
2022/01/13 07:19:29;;;;;;;65.47;51.95;;;17.90;55.40;;;;;;4930047;27;92361;-78
2022/01/13 07:21:54;;;;;;;66.82;51.90;;;18.10;55.20;;;;;;4962319;27;90329;-77
2022/01/13 07:24:20;;;;;;;68.47;51.70;;;18.10;54.50;;;;;;4970573;27;90594;-78
2022/01/13 07:26:46;;;;;;;64.93;51.63;;;18.10;54.20;;;;;;4985086;27;90386;-79
2022/01/13 07:29:11;;;;;;;70.93;51.35;;;18.20;54.60;;;;;;4982120;27;91650;-78
2022/01/13 07:31:38;;;;;;;63.47;51.05;;;18.20;54.50;;;;;;4983423;27;90985;-78
2022/01/13 07:34:05;;;;;;;65.47;51.67;;;18.20;54.50;;;;;;4962050;27;89916;-79
2022/01/13 07:36:31;;;;;;;63.85;50.97;;;18.30;54.30;;;;;;4972916;27;90565;-78
2022/01/13 07:38:57;;;;;;;65.10;51.78;;;18.30;54.30;;;;;;4966730;27;90025;-78
2022/01/13 07:41:33;;;;;;;63.05;50.50;;;18.30;54.30;;;;;;3317454;27;10098985;-78
2022/01/13 07:43:59;;;;;;;62.92;51.03;;;18.30;54.50;;;;;;2205302;27;10091194;-79
2022/01/13 07:46:25;;;;;;;64.70;51.20;;;18.40;54.70;;;;;;4974631;27;89968;-78
2022/01/13 07:48:51;;;;;;;64.60;51.30;;;18.40;54.30;;;;;;4989373;27;90565;-78
2022/01/13 07:51:17;;;;;;;64.70;51.47;;;18.40;54.30;;;;;;4989782;27;91297;-78
2022/01/13 07:53:43;;;;;;;66.57;52.10;;;18.40;54.70;;;;;;4990624;27;90814;-78
2022/01/13 07:56:09;;;;;;;64.70;51.33;;;18.40;54.10;;;;;;4987756;27;91110;-78
2022/01/13 07:58:35;;;;;;;65.03;51.50;;;18.40;54.40;;;;;;4972061;27;92596;-78
2022/01/13 08:01:02;;;;;;;66.68;50.97;;;18.40;54.10;;;;;;4966560;27;92737;-78
2022/01/13 08:03:27;;;;;;;62.85;50.80;;;18.40;54.50;;;;;;4987145;27;90648;-78
2022/01/13 08:05:53;;;;;;;66.95;51.50;;;18.50;54.60;;;;;;4990219;27;91764;-80
2022/01/13 08:08:19;;;;;;;66.20;51.17;;;18.40;53.90;;;;;;4992917;27;91547;-78
2022/01/13 08:10:45;;;;;;;65.82;51.88;;;18.40;54.30;;;;;;4991660;27;89171;-79
2022/01/13 08:13:11;;;;;;;65.03;51.33;;;18.40;54.30;;;;;;4982029;27;90431;-78
2022/01/13 08:15:36;;;;;;;63.90;51.40;;;18.40;54.40;;;;;;4990132;27;90994;-79
2022/01/13 08:20:47;;;;;;;65.57;51.45;;;18.40;54.30;;;;;;4981611;27;90004;-79
2022/01/13 08:23:13;;;;;;;68.60;51.90;;;18.40;54.70;;;;;;4989717;27;91965;-77
2022/01/13 08:25:39;;;;;;;64.00;51.33;;;18.40;54.20;;;;;;4956463;27;93678;-76
2022/01/13 08:28:05;;;;;;;65.40;51.88;;;18.40;53.80;;;;;;4977580;27;95554;-76
2022/01/13 08:30:32;;;;;;;65.40;51.65;;;18.30;53.30;;;;;;4969517;27;92088;-77
2022/01/13 08:32:57;;;;;;;66.68;52.13;;;18.20;53.50;;;;;;4935431;27;90499;-78
2022/01/13 08:35:23;;;;;;;66.65;51.90;;;18.10;53.80;;;;;;4945583;27;91430;-78
2022/01/13 08:37:49;;;;;;;67.03;52.22;;;18.10;53.90;;;;;;4970722;27;90781;-79
2022/01/13 08:40:15;;;;;;;64.18;51.58;;;18.20;54.10;;;;;;4973781;27;92473;-78
2022/01/13 08:42:41;;;;;;;65.50;51.95;;;18.20;54.90;;;;;;4970288;27;92480;-79
2022/01/13 08:45:09;;;;;;;65.97;52.00;;;18.20;54.30;;;;;;4980692;27;90321;-79
2022/01/13 08:47:36;;;;;;;66.95;51.38;;;18.20;54.00;;;;;;4987811;27;91145;-79
2022/01/13 08:50:03;;;;;;;65.72;51.58;;;18.20;53.90;;;;;;4972869;27;90929;-77
2022/01/13 08:52:28;;;;;;;65.13;51.55;;;18.20;54.30;;;;;;4967770;27;89421;-77
2022/01/13 08:54:58;;;;;;;68.82;52.05;;;18.20;54.00;;;;;;5000023;27;90038;-78
2022/01/13 08:57:24;;;;;;;66.80;52.10;;;18.20;54.00;;;;;;4986082;27;91926;-78
2022/01/13 08:59:50;;;;;;;66.32;52.15;;;18.20;54.10;;;;;;4965463;27;91453;-78
2022/01/13 09:02:15;;;;;;;65.78;51.72;;;18.20;54.20;;;;;;4968257;28;89988;-78
2022/01/13 09:04:41;;;;;;;66.72;52.08;;;18.20;54.00;;;;;;4976395;27;90887;-78
2022/01/13 09:07:07;;;;;;;65.38;51.33;;;18.20;54.40;;;;;;4984547;27;95707;-77
2022/01/13 09:09:34;;;;;;;67.07;51.72;;;18.20;53.70;;;;;;4976836;27;91339;-76
2022/01/13 09:12:01;;;;;;;67.68;52.25;;;18.10;53.70;;;;;;4984821;27;90036;-77
2022/01/13 09:14:28;;;;;;;65.65;51.83;;;18.10;53.10;;;;;;4968461;27;90798;-79
2022/01/13 09:16:57;;;;;;;69.45;51.85;;;18.00;53.40;;;;;;4964640;27;93350;-78
2022/01/13 09:19:23;;;;;;;67.97;51.90;;;18.00;53.10;;;;;;4971254;27;90927;-79
2022/01/13 09:21:49;;;;;;;68.85;52.40;;;18.10;53.40;;;;;;4973454;27;90383;-79
2022/01/13 09:24:17;;;;;;;65.65;51.60;;;18.10;53.40;;;;;;4976695;27;89947;-78
2022/01/13 09:26:44;;;;;;;67.22;51.90;;;18.10;53.50;;;;;;4984904;27;93229;-79
2022/01/13 09:29:11;;;;;;;66.47;51.95;;;18.10;53.60;;;;;;4974554;27;92704;-79
2022/01/13 09:31:38;;;;;;;68.40;52.10;;;18.20;54.30;;;;;;4947035;28;91997;-79
2022/01/13 09:34:05;;;;;;;66.13;52.10;;;18.40;54.30;;;;;;4960279;28;92089;-77
2022/01/13 09:36:32;;;;;;;66.53;51.97;;;18.50;54.20;;;;;;4949788;28;91748;-78
2022/01/13 09:38:59;;;;;;;65.72;52.08;;;18.70;53.90;;;;;;4938937;28;91588;-80
2022/01/13 09:41:30;;;;;;;65.40;52.05;;;18.80;53.80;;;;;;4964021;27;97277;-78
2022/01/13 09:43:57;;;;;;;66.75;52.28;;;19.00;53.50;;;;;;4947513;28;90200;-78
2022/01/13 09:46:26;;;;;;;66.47;52.45;;;19.10;53.30;;;;;;4942777;28;92625;-76
2022/01/13 09:48:53;;;;;;;72.22;52.58;;;19.20;53.10;;;;;;4948777;28;91593;-79
2022/01/13 09:51:22;;;;;;;69.10;52.28;;;19.40;52.40;;;;;;4939544;28;91067;-79
2022/01/13 09:53:48;;;;;;;67.15;51.95;;;19.50;52.10;;;;;;4958035;28;96440;-79
2022/01/13 09:56:13;;;;;;;67.35;51.97;;;19.60;52.00;;;;;;4940140;28;92221;-78
2022/01/13 09:58:43;;;;;;;68.43;52.83;;;19.70;52.10;;;;;;4935935;28;91487;-79
2022/01/13 10:01:10;;;;;;;66.28;51.85;;;19.70;52.10;;;;;;4939792;28;91237;-80
2022/01/13 10:03:37;;;;;;;66.88;52.15;;;19.80;52.00;;;;;;4952942;28;90546;-79
2022/01/13 10:06:10;;;;;;;66.20;52.30;;;19.90;51.60;;;;;;4942494;28;92998;-79
2022/01/13 10:08:59;;;;;;;67.53;52.13;;;19.90;51.50;;;;;;4939294;28;90172;-80
2022/01/13 10:11:54;;;;;;;68.70;52.00;;;19.90;51.60;;;;;;4967860;28;91157;-80
2022/01/13 10:17:00;;;;;;;68.25;52.22;;;20.10;51.20;;;;;;4941975;28;92704;-80
2022/01/13 10:19:38;;;;;;;67.50;52.13;;;20.10;50.70;;;;;;4975782;28;92516;-79
2022/01/13 10:22:15;;;;;;;69.68;52.35;;;20.00;50.50;;;;;;4976168;28;91432;-80
2022/01/13 10:24:46;;;;;;;68.13;52.38;;;20.00;50.80;;;;;;4975688;28;91946;-79
2022/01/13 10:27:14;;;;;;;67.30;52.45;;;20.00;50.70;;;;;;4969015;28;92517;-80
2022/01/13 10:29:50;;;;;;;67.72;52.22;;;20.00;50.90;;;;;;4984812;27;90762;-78
2022/01/13 10:32:18;;;;;;;67.88;52.75;;;20.00;51.00;;;;;;4991555;27;89760;-79
2022/01/13 10:35:05;;;;;;;65.93;51.55;;;20.00;51.00;;;;;;2532231;27;10093814;-80
2022/01/13 10:37:40;;;;;;;71.93;52.33;;;20.00;51.00;;;;;;3593409;27;10094608;-80
2022/01/13 10:40:12;;;;;;;67.45;51.97;;;19.90;51.20;;;;;;4985717;27;90494;-78
2022/01/13 10:45:30;;;;;;;67.70;52.50;;;19.80;51.30;;;;;;4991821;27;89908;-79
2022/01/13 10:47:57;;;;;;;68.15;52.45;;;19.80;51.40;;;;;;4989822;27;91561;-79
2022/01/13 10:50:30;;;;;;;69.18;52.80;;;19.80;51.40;;;;;;4986902;27;92932;-78
2022/01/13 10:53:02;;;;;;;66.50;51.90;;;19.80;51.40;;;;;;4996313;27;90199;-79
2022/01/13 10:55:30;;;;;;;68.57;53.05;;;19.80;51.60;;;;;;4987157;27;91148;-81
2022/01/13 10:57:57;;;;;;;70.53;51.63;;;19.80;51.50;;;;;;4994296;27;90811;-81
2022/01/13 11:00:25;;;;;;;69.93;52.17;;;19.80;51.40;;;;;;4989416;27;91684;-79
2022/01/13 11:03:27;;;;;;;72.28;52.45;;;19.80;51.70;;;;;;4988758;27;91299;-79
2022/01/13 11:06:05;;;;;;;68.60;52.47;;;19.70;51.90;;;;;;4987490;27;90337;-80
2022/01/13 11:08:41;;;;;;;71.45;52.58;;;19.80;51.30;;;;;;4971631;27;91245;-77
2022/01/13 11:11:20;;;;;;;67.32;52.45;;;19.70;51.30;;;;;;4976074;27;101091;-78
2022/01/13 11:13:52;;;;;;;68.82;53.28;;;19.70;51.20;;;;;;4988474;27;92832;-76
2022/01/13 11:16:18;;;;;;;;;;;19.60;51.00;;;;;;4983792;27;90173;-77
2022/01/13 11:18:43;;;;;;;69.20;52.42;;;19.50;50.90;;;;;;4981297;27;90811;-76
2022/01/13 11:21:09;;;;;;;68.63;53.50;;;19.60;51.00;;;;;;4984227;27;93021;-76
2022/01/13 11:23:36;;;;;;;73.95;54.10;;;19.50;50.80;;;;;;4975392;27;92938;-76
2022/01/13 11:26:02;;;;;;;71.40;54.03;;;19.50;50.90;;;;;;4923582;27;91862;-76
2022/01/13 11:28:28;;;;;;;67.63;52.83;;;19.50;50.60;;;;;;4945200;27;90773;-77
2022/01/13 11:30:56;;;;;;;69.43;52.83;;;19.40;51.20;;;;;;4970486;27;90266;-78
2022/01/13 11:33:23;;;;;;;68.32;53.13;;;19.40;50.80;;;;;;4983600;27;90059;-77
2022/01/13 11:35:55;;;;;;;70.30;52.80;;;19.30;50.90;;;;;;4947915;27;96502;-76
2022/01/13 11:38:23;;;;;;;68.50;52.97;;;19.30;50.90;;;;;;4978580;27;92672;-77
2022/01/13 11:40:52;;;;;;;69.45;53.40;;;19.30;50.90;;;;;;4977510;27;90812;-75
2022/01/13 11:43:30;;;;;;;70.68;53.63;;;19.20;51.10;;;;;;4972973;27;89848;-76
2022/01/13 11:45:59;;;;;;;69.05;53.40;;;19.20;51.10;;;;;;4973781;27;90991;-76
2022/01/13 11:48:29;;;;;;;68.32;52.72;;;19.20;51.10;;;;;;4972880;27;90977;-77
2022/01/13 11:51:17;;;;;;;68.88;53.13;;;19.10;51.40;;;;;;4990260;27;90124;-75
2022/01/13 11:53:58;;;;;;;69.82;52.83;;;19.10;51.50;;;;;;4962303;27;91885;-79
2022/01/13 11:56:24;;;;;;;68.60;52.67;;;19.10;51.80;;;;;;4982393;27;89869;-78
2022/01/13 11:58:51;;;;;;;70.45;53.35;;;19.00;51.90;;;;;;4957148;27;90703;-77
2022/01/13 12:01:35;;;;;;;70.68;53.33;;;19.00;52.20;;;;;;4981738;27;90061;-77
2022/01/13 12:04:06;;;;;;;71.30;53.10;;;18.90;52.40;;;;;;4960310;27;91950;-77
2022/01/13 12:06:43;;;;;;;71.28;53.05;;;18.90;52.40;;;;;;4973237;27;91487;-77
2022/01/13 12:09:23;;;;;;;68.35;53.30;;;18.90;52.70;;;;;;4963572;27;90395;-78
2022/01/13 12:11:51;;;;;;;67.25;52.15;;;18.90;52.70;;;;;;4985746;27;90249;-78
2022/01/13 12:14:23;;;;;;;71.10;52.72;;;18.90;52.70;;;;;;4967584;27;97698;-78
2022/01/13 12:16:55;;;;;;;71.68;52.97;;;18.90;52.80;;;;;;4978044;27;94400;-78
2022/01/13 12:19:32;;;;;;;71.50;53.22;;;18.90;52.90;;;;;;4963669;27;89854;-77
2022/01/13 12:22:08;;;;;;;68.82;53.38;;;18.90;52.70;;;;;;4987914;27;89360;-79
2022/01/13 12:24:58;;;;;;;69.38;52.92;;;18.90;52.70;;;;;;4978927;27;90593;-77
2022/01/13 12:27:28;;;;;;;71.53;53.55;;;18.90;52.60;;;;;;4980239;27;92023;-80
2022/01/13 12:30:10;;;;;;;69.20;53.63;;;18.80;52.70;;;;;;4966665;27;91828;-79
2022/01/13 12:33:00;;;;;;;71.80;53.95;;;18.80;53.10;;;;;;4971575;27;92692;-79
2022/01/13 12:35:38;;;;;;;73.55;53.75;;;18.80;53.10;;;;;;4974329;28;92023;-78
2022/01/13 12:38:04;;;;;;;69.43;53.45;;;18.80;53.10;;;;;;4981890;27;91419;-79
2022/01/13 12:40:34;;;;;;;70.00;53.38;;;18.80;53.00;;;;;;4982712;27;90930;-79
2022/01/13 12:46:07;;;;;;;70.78;53.95;;;18.80;53.20;;;;;;4970313;27;91540;-78
2022/01/13 12:48:34;;;;;;;70.90;54.10;;;18.80;53.50;;;;;;4977241;27;89376;-79
2022/01/13 12:51:00;;;;;;;71.50;53.78;;;18.80;53.60;;;;;;4961949;27;89699;-78
2022/01/13 12:53:28;;;;;;;70.80;53.85;;;18.80;53.50;;;;;;4974162;27;97080;-79
2022/01/13 12:56:00;;;;;;;73.18;54.38;;;18.80;53.70;;;;;;4962511;27;92694;-79
2022/01/13 12:58:30;;;;;;;70.05;54.00;;;18.70;53.70;;;;;;4971974;27;90310;-80
2022/01/13 13:01:03;;;;;;;70.70;53.83;;;18.70;53.90;;;;;;4983611;27;91792;-79
2022/01/13 13:03:28;;;;;;;70.03;54.05;;;18.80;53.80;;;;;;4960461;27;91845;-79
2022/01/13 13:05:56;;;;;;;69.55;53.55;;;18.70;53.80;;;;;;4972655;27;94211;-80
2022/01/13 13:08:24;;;;;;;73.88;54.13;;;18.70;54.10;;;;;;4978784;27;92526;-81
2022/01/13 13:10:53;;;;;;;70.80;54.20;;;18.80;53.30;;;;;;4983512;27;90490;-80
2022/01/13 13:13:19;;;;;;;73.45;54.63;;;18.80;53.30;;;;;;4972413;27;90834;-79
2022/01/13 13:16:06;;;;;;;71.30;54.35;;;18.80;52.70;;;;;;4971673;27;90981;-81